Terminal Aerodrome Forecast
Issued by NWS

Home | Current Version | Previous Version | Text Only | Print | Product List | Glossary On
Versions: 1 2 3 4 5 6 7 8 9 10 11 12 13 14
594
FTUS41 KPBZ 261738
TAFAGC
TAF
KAGC 261738Z 2618/2718 28011G19KT P6SM SCT060
     FM262100 27012KT P6SM VCSH BKN050
     FM270000 27007KT P6SM SCT200
     FM271400 27010KT P6SM BKN035=

USA.gov is the U.S. government's official web portal to all federal, state and local government web resources and services.